createdAt,value
2023-03-29T00:00:49.647Z,0.30
2023-03-29T00:03:17.190Z,0.32
2023-03-29T00:05:44.770Z,0.10
2023-03-29T00:08:14.280Z,0.40
2023-03-29T00:10:41.832Z,0.30
2023-03-29T00:13:08.603Z,0.20
2023-03-29T00:15:36.235Z,0.40
2023-03-29T00:18:02.639Z,0.30
2023-03-29T00:20:29.142Z,0.20
2023-03-29T00:22:55.698Z,0.50
2023-03-29T00:25:22.201Z,0.32
2023-03-29T00:27:48.750Z,0.20
2023-03-29T00:30:15.946Z,0.23
2023-03-29T00:32:42.920Z,0.40
2023-03-29T00:35:10.019Z,0.30
2023-03-29T00:37:37.877Z,0.30
2023-03-29T00:40:11.685Z,0.60
2023-03-29T00:42:38.435Z,0.20
2023-03-29T00:45:25.130Z,0.40
2023-03-29T00:47:59.963Z,0.50
2023-03-29T00:50:30.806Z,0.30
2023-03-29T00:53:01.496Z,0.30
2023-03-29T00:55:33.362Z,0.30
2023-03-29T00:58:00.949Z,0.50
2023-03-29T01:00:34.994Z,0.30
2023-03-29T01:03:07.079Z,0.50
2023-03-29T01:05:40.634Z,0.40
2023-03-29T01:08:17.931Z,0.60
2023-03-29T01:11:26.639Z,0.25
2023-03-29T01:13:56.049Z,0.50
2023-03-29T01:16:25.758Z,0.30
2023-03-29T01:18:52.362Z,0.30
2023-03-29T01:21:23.463Z,0.40
2023-03-29T01:23:58.216Z,0.40
2023-03-29T01:26:43.674Z,0.50
2023-03-29T01:29:15.382Z,0.38
2023-03-29T01:31:47.054Z,0.30
2023-03-29T01:34:52.559Z,0.40
2023-03-29T01:37:34.195Z,0.35
2023-03-29T01:40:01.119Z,0.40
2023-03-29T01:42:36.373Z,0.50
2023-03-29T01:45:20.137Z,0.40
2023-03-29T01:48:03.472Z,0.40
2023-03-29T01:50:38.642Z,0.50
2023-03-29T01:53:10.672Z,0.65
2023-03-29T01:55:45.900Z,0.50
2023-03-29T01:58:15.005Z,0.50
2023-03-29T02:00:43.740Z,0.30
2023-03-29T02:03:10.574Z,0.40
2023-03-29T02:05:39.211Z,0.30
2023-03-29T02:08:09.150Z,0.38
2023-03-29T02:10:36.781Z,0.45
2023-03-29T02:13:04.234Z,0.47
2023-03-29T02:15:30.706Z,0.68
2023-03-29T02:17:57.227Z,0.57
2023-03-29T02:20:31.900Z,0.45
2023-03-29T02:23:12.400Z,0.68
2023-03-29T02:25:38.835Z,0.47
2023-03-29T02:28:06.731Z,0.28
2023-03-29T02:31:05.586Z,0.57
2023-03-29T02:33:34.985Z,0.38
2023-03-29T02:36:38.179Z,0.50
2023-03-29T02:39:06.038Z,0.43
2023-03-29T02:41:32.905Z,0.88
2023-03-29T02:44:01.194Z,0.77
2023-03-29T02:46:28.181Z,0.47
2023-03-29T02:48:56.910Z,0.40
2023-03-29T02:51:33.741Z,0.67
2023-03-29T02:54:05.918Z,0.70
2023-03-29T02:56:45.097Z,0.52
2023-03-29T02:59:12.398Z,0.50
2023-03-29T03:01:42.812Z,0.77
2023-03-29T03:04:13.147Z,0.60
2023-03-29T03:06:39.917Z,0.40
2023-03-29T03:09:07.485Z,0.55
2023-03-29T03:11:34.356Z,0.80
2023-03-29T03:14:00.900Z,0.52
2023-03-29T03:16:27.933Z,0.47
2023-03-29T03:18:55.581Z,0.55
2023-03-29T03:21:23.092Z,0.30
2023-03-29T03:23:49.695Z,0.60
2023-03-29T03:26:17.769Z,0.85
2023-03-29T03:28:45.730Z,0.33
2023-03-29T03:31:15.873Z,0.47
2023-03-29T03:33:42.476Z,0.68
2023-03-29T03:36:10.407Z,0.57
2023-03-29T03:38:38.247Z,0.90
2023-03-29T03:41:06.855Z,0.40
2023-03-29T03:43:34.138Z,0.60
2023-03-29T03:46:00.701Z,0.90
2023-03-29T03:48:27.322Z,0.52
2023-03-29T03:50:56.041Z,0.55
2023-03-29T03:53:23.551Z,0.80
2023-03-29T03:55:50.927Z,0.60
2023-03-29T03:58:18.363Z,0.65
2023-03-29T04:00:48.180Z,0.65
2023-03-29T04:03:15.666Z,0.80
2023-03-29T04:05:44.471Z,0.80
2023-03-29T04:08:14.894Z,0.75
2023-03-29T04:10:41.567Z,0.60
2023-03-29T04:13:08.290Z,0.77
2023-03-29T04:15:41.103Z,0.50
2023-03-29T04:18:07.798Z,0.70
2023-03-29T04:20:34.627Z,0.68
2023-03-29T04:23:01.613Z,0.70
2023-03-29T04:25:28.434Z,0.38
2023-03-29T04:27:54.870Z,0.47
2023-03-29T04:30:21.775Z,0.43
2023-03-29T04:32:48.719Z,0.47
2023-03-29T04:35:15.214Z,0.57
2023-03-29T04:37:41.782Z,0.60
2023-03-29T04:40:09.922Z,1.05
2023-03-29T04:42:37.586Z,0.40
2023-03-29T04:45:06.943Z,0.90
2023-03-29T04:47:36.212Z,0.70
2023-03-29T04:50:03.424Z,0.60
2023-03-29T04:52:32.963Z,0.70
2023-03-29T04:55:03.999Z,0.97
2023-03-29T04:57:30.759Z,0.50
2023-03-29T04:59:57.648Z,0.63
2023-03-29T05:02:24.118Z,1.05
2023-03-29T05:04:50.508Z,1.00
2023-03-29T05:07:18.146Z,0.50
2023-03-29T05:09:44.598Z,0.55
2023-03-29T05:12:11.061Z,0.57
2023-03-29T05:14:37.401Z,0.60
2023-03-29T05:17:04.986Z,0.52
2023-03-29T05:19:31.908Z,0.70
2023-03-29T05:21:59.087Z,0.60
2023-03-29T05:24:25.718Z,0.80
2023-03-29T05:26:52.274Z,0.50
2023-03-29T05:29:19.067Z,0.77
2023-03-29T05:31:46.821Z,0.50
2023-03-29T05:34:13.325Z,0.47
2023-03-29T05:36:39.749Z,0.60
2023-03-29T05:39:06.775Z,1.00
2023-03-29T05:41:33.626Z,0.80
2023-03-29T05:44:00.054Z,0.60
2023-03-29T05:46:26.972Z,0.70
2023-03-29T05:48:53.553Z,0.93
2023-03-29T05:51:24.467Z,0.50
2023-03-29T05:53:51.488Z,0.60
2023-03-29T05:56:18.897Z,0.60
2023-03-29T05:58:50.941Z,0.43
2023-03-29T06:01:18.203Z,1.02
2023-03-29T06:03:46.215Z,0.60
2023-03-29T06:06:16.092Z,0.82
2023-03-29T06:08:43.457Z,0.60
2023-03-29T06:11:11.495Z,0.75
2023-03-29T06:13:38.808Z,1.02
2023-03-29T06:16:06.376Z,0.50
2023-03-29T06:18:33.412Z,0.90
2023-03-29T06:21:02.000Z,0.77
2023-03-29T06:23:29.256Z,0.73
2023-03-29T06:25:56.464Z,0.60
2023-03-29T06:28:23.943Z,0.60
2023-03-29T06:30:50.570Z,1.02
2023-03-29T06:33:17.226Z,1.10
2023-03-29T06:35:47.499Z,0.60
2023-03-29T06:38:15.083Z,0.88
2023-03-29T06:40:43.194Z,0.73
2023-03-29T06:43:10.275Z,0.80
2023-03-29T06:45:38.566Z,0.60
2023-03-29T06:48:06.267Z,0.70
2023-03-29T06:50:33.020Z,0.68
2023-03-29T06:52:59.641Z,0.90
2023-03-29T06:55:27.098Z,0.82
2023-03-29T06:57:54.648Z,0.97
2023-03-29T07:00:39.364Z,0.85
2023-03-29T07:03:09.651Z,1.48
2023-03-29T07:05:37.157Z,0.90
2023-03-29T07:08:06.417Z,1.35
2023-03-29T07:10:38.304Z,0.80
2023-03-29T07:13:11.006Z,1.02
2023-03-29T07:15:37.593Z,1.60
2023-03-29T07:18:04.641Z,1.73
2023-03-29T07:20:32.046Z,1.73
2023-03-29T07:22:58.412Z,1.47
2023-03-29T07:25:26.140Z,1.00
2023-03-29T07:27:52.948Z,1.13
2023-03-29T07:30:23.235Z,1.40
2023-03-29T07:32:51.075Z,1.60
2023-03-29T07:35:18.421Z,1.20
2023-03-29T07:37:46.326Z,1.45
2023-03-29T07:40:18.694Z,1.20
2023-03-29T07:42:46.592Z,1.05
2023-03-29T07:45:16.348Z,0.95
2023-03-29T07:47:47.503Z,1.20
2023-03-29T07:50:14.554Z,1.77
2023-03-29T07:52:41.094Z,1.27
2023-03-29T07:55:10.277Z,1.63
2023-03-29T07:57:36.870Z,2.08
2023-03-29T08:00:16.972Z,1.57
2023-03-29T08:02:45.699Z,2.25
2023-03-29T08:05:14.132Z,1.70
2023-03-29T08:07:42.317Z,1.33
2023-03-29T08:10:11.542Z,1.42
2023-03-29T08:12:38.041Z,2.60
2023-03-29T08:15:05.490Z,1.90
2023-03-29T08:17:33.117Z,1.88
2023-03-29T08:19:59.587Z,1.52
2023-03-29T08:22:26.098Z,2.22
2023-03-29T08:24:52.870Z,2.73
2023-03-29T08:27:19.796Z,2.53
2023-03-29T08:29:46.609Z,2.65
2023-03-29T08:32:12.996Z,2.47
2023-03-29T08:34:39.378Z,2.60
2023-03-29T08:37:05.757Z,2.53
2023-03-29T08:39:32.488Z,2.70
2023-03-29T08:42:08.850Z,2.78
2023-03-29T08:44:54.517Z,2.70
2023-03-29T08:47:36.586Z,3.15
2023-03-29T08:50:03.207Z,2.50
2023-03-29T08:52:42.888Z,3.25
2023-03-29T08:55:24.460Z,2.75
2023-03-29T08:57:51.788Z,3.75
2023-03-29T09:00:24.389Z,3.03
2023-03-29T09:02:53.855Z,3.10
2023-03-29T09:05:27.336Z,2.90
2023-03-29T09:07:54.433Z,3.10
2023-03-29T09:10:28.043Z,3.45
2023-03-29T09:13:30.226Z,3.38
2023-03-29T09:16:32.999Z,3.73
2023-03-29T09:19:06.255Z,3.53
2023-03-29T09:21:55.896Z,3.30
2023-03-29T09:24:54.142Z,3.28
2023-03-29T09:27:27.417Z,3.33
2023-03-29T09:30:07.128Z,3.60
2023-03-29T09:32:51.313Z,3.00
2023-03-29T09:35:33.353Z,3.10
2023-03-29T09:38:00.647Z,2.92
2023-03-29T09:40:37.874Z,3.28
2023-03-29T09:43:13.646Z,3.73
2023-03-29T09:45:41.124Z,3.03
2023-03-29T09:48:15.428Z,4.22
2023-03-29T09:50:47.490Z,3.10
2023-03-29T09:53:18.672Z,3.17
2023-03-29T09:55:49.078Z,3.57
2023-03-29T09:58:20.378Z,4.22
2023-03-29T10:00:48.249Z,4.13
2023-03-29T10:03:29.597Z,3.35
2023-03-29T10:05:59.896Z,3.35
2023-03-29T10:08:35.875Z,3.80
2023-03-29T10:11:09.581Z,3.30
2023-03-29T10:13:50.897Z,3.28
2023-03-29T10:16:41.482Z,3.72
2023-03-29T10:19:22.328Z,3.92
2023-03-29T10:21:50.357Z,3.50
2023-03-29T10:24:24.588Z,3.92
2023-03-29T10:26:56.245Z,3.15
2023-03-29T10:29:24.584Z,4.20
2023-03-29T10:31:51.793Z,4.18
2023-03-29T10:34:18.868Z,3.80
2023-03-29T10:36:55.606Z,4.30
2023-03-29T10:39:22.979Z,4.35
2023-03-29T10:41:52.421Z,4.13
2023-03-29T10:44:34.220Z,5.75
2023-03-29T10:47:16.998Z,5.00
2023-03-29T10:49:47.801Z,4.85
2023-03-29T10:52:16.420Z,4.55
2023-03-29T10:54:43.684Z,5.55
2023-03-29T10:57:15.792Z,5.03
2023-03-29T10:59:52.965Z,6.57
2023-03-29T11:02:30.249Z,5.53
2023-03-29T11:05:19.233Z,5.28
2023-03-29T11:07:51.889Z,5.45
2023-03-29T11:10:36.531Z,5.13
2023-03-29T11:13:40.833Z,5.70
2023-03-29T11:16:45.223Z,5.28
2023-03-29T11:19:49.275Z,5.43
2023-03-29T11:22:21.770Z,5.10
2023-03-29T11:25:11.458Z,5.88
2023-03-29T11:27:44.909Z,4.80
2023-03-29T11:30:25.778Z,5.63
2023-03-29T11:33:24.127Z,5.18
2023-03-29T11:36:01.822Z,5.40
2023-03-29T11:38:59.372Z,5.30
2023-03-29T11:41:30.412Z,5.37
2023-03-29T11:44:10.298Z,5.30
2023-03-29T11:46:44.132Z,4.80
2023-03-29T11:49:32.194Z,4.47
2023-03-29T11:52:20.007Z,5.03
2023-03-29T11:54:55.547Z,5.00
2023-03-29T11:57:37.009Z,4.28
2023-03-29T12:00:12.845Z,4.82
2023-03-29T12:02:44.398Z,4.72
2023-03-29T12:05:24.403Z,5.68
2023-03-29T12:07:56.080Z,5.57
2023-03-29T12:10:29.019Z,6.00
2023-03-29T12:13:00.939Z,6.90
2023-03-29T12:15:33.540Z,7.38
2023-03-29T12:18:20.002Z,7.32
2023-03-29T12:20:52.176Z,6.70
2023-03-29T12:23:19.169Z,7.47
2023-03-29T12:26:04.092Z,7.72
2023-03-29T12:28:55.451Z,7.28
2023-03-29T12:31:42.372Z,6.97
2023-03-29T12:34:36.251Z,7.03
2023-03-29T12:37:14.652Z,6.55
2023-03-29T12:39:41.304Z,7.57
2023-03-29T12:42:16.939Z,7.53
2023-03-29T12:44:51.972Z,8.02
2023-03-29T12:47:25.234Z,8.10
2023-03-29T12:49:58.099Z,8.95
2023-03-29T12:52:30.418Z,9.57
2023-03-29T12:55:25.233Z,8.57
2023-03-29T12:58:05.060Z,8.90
2023-03-29T13:00:40.220Z,9.50
2023-03-29T13:03:27.585Z,9.63
2023-03-29T13:06:03.456Z,10.23
2023-03-29T13:08:39.939Z,9.63
2023-03-29T13:11:31.445Z,9.25
2023-03-29T13:14:01.408Z,8.77
2023-03-29T13:16:34.879Z,7.65
2023-03-29T13:19:09.656Z,7.93
2023-03-29T13:22:10.409Z,7.72
2023-03-29T13:24:55.619Z,8.38
2023-03-29T13:27:31.677Z,6.30
2023-03-29T13:30:11.546Z,6.50
2023-03-29T13:32:47.205Z,7.10
2023-03-29T13:35:41.314Z,7.03
2023-03-29T13:38:18.769Z,7.28
2023-03-29T13:40:54.359Z,7.67
2023-03-29T13:43:51.638Z,7.03
2023-03-29T13:46:23.239Z,7.82
2023-03-29T13:48:54.555Z,8.20
2023-03-29T13:51:27.958Z,7.90
2023-03-29T13:54:01.453Z,7.90
2023-03-29T13:56:43.177Z,6.63
2023-03-29T13:59:11.819Z,7.88
2023-03-29T14:01:54.520Z,7.43
2023-03-29T14:04:25.226Z,8.10
2023-03-29T14:06:54.383Z,7.70
2023-03-29T14:09:30.049Z,7.40
2023-03-29T14:11:58.779Z,7.43
2023-03-29T14:14:27.879Z,7.40
2023-03-29T14:16:56.259Z,7.90
2023-03-29T14:19:34.409Z,7.47
2023-03-29T14:22:02.306Z,6.90
2023-03-29T14:24:37.659Z,6.68
2023-03-29T14:27:06.894Z,6.78
2023-03-29T14:29:34.201Z,6.43
2023-03-29T14:32:11.847Z,6.40
2023-03-29T14:34:39.575Z,6.05
2023-03-29T14:37:08.911Z,6.38
2023-03-29T14:39:35.973Z,7.22
2023-03-29T14:42:02.656Z,6.82
2023-03-29T14:44:33.015Z,5.63
2023-03-29T14:47:01.427Z,5.78
2023-03-29T14:49:28.026Z,6.22
2023-03-29T14:51:55.635Z,5.53
2023-03-29T14:54:32.657Z,5.53
2023-03-29T14:57:03.278Z,4.80
2023-03-29T14:59:41.656Z,4.75
2023-03-29T15:02:23.305Z,4.68
2023-03-29T15:05:25.434Z,4.43
2023-03-29T15:07:55.809Z,4.93
2023-03-29T15:10:22.439Z,5.13
2023-03-29T15:12:50.068Z,4.55
2023-03-29T15:15:16.971Z,4.47
2023-03-29T15:17:51.827Z,4.43
2023-03-29T15:20:25.589Z,4.78
2023-03-29T15:22:59.286Z,4.00
2023-03-29T15:25:47.562Z,4.20
2023-03-29T15:28:27.625Z,4.28
2023-03-29T15:31:07.254Z,4.28
2023-03-29T15:33:38.228Z,3.40
2023-03-29T15:36:06.865Z,3.00
2023-03-29T15:38:43.120Z,3.25
2023-03-29T15:41:10.831Z,3.45
2023-03-29T15:43:37.480Z,2.55
2023-03-29T15:46:04.338Z,2.55
2023-03-29T15:48:33.820Z,2.87
2023-03-29T15:51:05.516Z,2.80
2023-03-29T15:53:33.196Z,2.65
2023-03-29T15:56:02.148Z,2.83
2023-03-29T15:58:33.543Z,2.60
2023-03-29T16:01:11.163Z,2.90
2023-03-29T16:03:38.482Z,2.80
2023-03-29T16:06:05.425Z,2.45
2023-03-29T16:08:32.058Z,2.88
2023-03-29T16:10:58.364Z,2.60
2023-03-29T16:13:24.717Z,2.43
2023-03-29T16:15:51.045Z,2.45
2023-03-29T16:18:17.399Z,2.22
2023-03-29T16:20:43.815Z,1.67
2023-03-29T16:23:11.438Z,1.52
2023-03-29T16:25:39.769Z,1.60
2023-03-29T16:28:08.909Z,1.98
2023-03-29T16:30:36.675Z,1.75
2023-03-29T16:33:06.308Z,1.90
2023-03-29T16:35:35.433Z,1.80
2023-03-29T16:38:01.884Z,1.70
2023-03-29T16:40:28.347Z,1.77
2023-03-29T16:42:54.808Z,2.00
2023-03-29T16:45:21.314Z,1.85
2023-03-29T16:47:47.904Z,1.67
2023-03-29T16:50:17.894Z,2.53
2023-03-29T16:52:46.101Z,2.63
2023-03-29T16:55:13.592Z,1.98
2023-03-29T16:57:40.154Z,1.83
2023-03-29T17:00:12.241Z,1.70
2023-03-29T17:02:38.699Z,2.10
2023-03-29T17:05:06.061Z,2.33
2023-03-29T17:07:33.528Z,2.10
2023-03-29T17:10:00.158Z,1.85
2023-03-29T17:12:26.821Z,1.80
2023-03-29T17:14:53.148Z,2.17
2023-03-29T17:17:19.640Z,1.80
2023-03-29T17:19:46.173Z,2.15
2023-03-29T17:22:12.584Z,2.00
2023-03-29T17:24:38.970Z,1.67
2023-03-29T17:27:05.293Z,2.67
2023-03-29T17:29:31.807Z,2.13
2023-03-29T17:31:58.393Z,2.40
2023-03-29T17:34:27.026Z,2.15
2023-03-29T17:36:54.015Z,2.08
2023-03-29T17:39:20.445Z,1.87
2023-03-29T17:41:47.320Z,2.10
2023-03-29T17:44:13.896Z,2.47
2023-03-29T17:46:40.257Z,2.40
2023-03-29T17:49:06.625Z,2.20
2023-03-29T17:51:32.974Z,2.40
2023-03-29T17:53:59.333Z,2.47
2023-03-29T17:56:26.536Z,2.95
2023-03-29T17:58:53.423Z,2.53
2023-03-29T18:01:20.348Z,2.85
2023-03-29T18:03:48.289Z,2.40
2023-03-29T18:06:17.995Z,2.20
2023-03-29T18:08:44.740Z,2.42
2023-03-29T18:11:22.296Z,2.55
2023-03-29T18:13:49.777Z,2.72
2023-03-29T18:16:16.374Z,3.47
2023-03-29T18:18:43.655Z,2.72
2023-03-29T18:21:10.816Z,2.70
2023-03-29T18:23:39.830Z,2.53
2023-03-29T18:26:07.334Z,2.88
2023-03-29T18:28:34.898Z,2.57
2023-03-29T18:31:01.278Z,2.80
2023-03-29T18:33:30.123Z,2.67
2023-03-29T18:35:56.510Z,2.88
2023-03-29T18:38:22.942Z,2.78
2023-03-29T18:40:50.416Z,3.20
2023-03-29T18:43:17.050Z,2.88
2023-03-29T18:45:44.398Z,2.90
2023-03-29T18:48:11.079Z,2.58
2023-03-29T18:50:38.672Z,2.22
2023-03-29T18:53:05.271Z,2.90
2023-03-29T18:55:31.641Z,2.30
2023-03-29T18:57:58.004Z,2.65
2023-03-29T19:00:24.471Z,2.15
2023-03-29T19:02:51.054Z,2.70
2023-03-29T19:05:17.624Z,1.80
2023-03-29T19:07:44.297Z,1.60
2023-03-29T19:10:12.042Z,2.40
2023-03-29T19:12:38.568Z,1.90
2023-03-29T19:15:05.641Z,2.45
2023-03-29T19:17:32.178Z,2.10
2023-03-29T19:19:58.800Z,1.77
2023-03-29T19:22:25.240Z,2.08
2023-03-29T19:24:51.577Z,2.42
2023-03-29T19:27:18.448Z,2.53
2023-03-29T19:29:44.828Z,1.60
2023-03-29T19:32:11.225Z,2.20
2023-03-29T19:34:37.572Z,2.40
2023-03-29T19:37:03.978Z,2.08
2023-03-29T19:39:30.476Z,2.35
2023-03-29T19:41:56.914Z,1.83
2023-03-29T19:44:23.566Z,1.70
2023-03-29T19:46:51.200Z,1.95
2023-03-29T19:49:17.642Z,2.05
2023-03-29T19:51:44.185Z,1.83
2023-03-29T19:54:13.732Z,1.53
2023-03-29T19:56:42.825Z,2.30
2023-03-29T19:59:11.113Z,2.50
2023-03-29T20:01:39.034Z,2.80
2023-03-29T20:04:05.571Z,3.70
2023-03-29T20:06:31.985Z,3.37
2023-03-29T20:08:58.811Z,2.60
2023-03-29T20:11:25.568Z,2.78
2023-03-29T20:13:52.270Z,2.97
2023-03-29T20:16:19.200Z,2.70
2023-03-29T20:18:46.481Z,3.30
2023-03-29T20:21:16.207Z,4.93
2023-03-29T20:23:42.710Z,4.68
2023-03-29T20:26:09.104Z,5.28
2023-03-29T20:28:37.529Z,6.13
2023-03-29T20:31:06.198Z,5.93
2023-03-29T20:33:33.488Z,6.15
2023-03-29T20:36:00.000Z,5.57
2023-03-29T20:38:26.600Z,5.53
2023-03-29T20:40:53.538Z,4.35
2023-03-29T20:43:20.179Z,4.03
2023-03-29T20:45:53.440Z,4.00
2023-03-29T20:48:22.820Z,4.40
2023-03-29T20:50:49.454Z,3.30
2023-03-29T20:53:16.361Z,3.83
2023-03-29T20:55:42.778Z,3.80
2023-03-29T20:58:09.421Z,3.42
2023-03-29T21:00:37.614Z,3.17
2023-03-29T21:03:04.206Z,3.17
2023-03-29T21:05:32.912Z,1.88
2023-03-29T21:07:59.966Z,2.50
2023-03-29T21:10:27.353Z,2.20
2023-03-29T21:12:54.281Z,2.20
2023-03-29T21:15:20.959Z,1.75
2023-03-29T21:17:47.552Z,1.65
2023-03-29T21:20:15.189Z,1.87
2023-03-29T21:22:45.540Z,2.15
2023-03-29T21:25:15.502Z,1.25
2023-03-29T21:27:42.099Z,1.70
2023-03-29T21:30:09.853Z,1.92
2023-03-29T21:32:36.611Z,1.93
2023-03-29T21:35:03.184Z,2.03
2023-03-29T21:37:29.559Z,1.27
2023-03-29T21:39:55.909Z,1.92
2023-03-29T21:42:22.257Z,1.55
2023-03-29T21:44:48.592Z,1.80
2023-03-29T21:47:14.961Z,1.58
2023-03-29T21:49:41.646Z,1.40
2023-03-29T21:52:08.023Z,1.40
2023-03-29T21:54:34.410Z,1.90
2023-03-29T21:57:01.198Z,1.77
2023-03-29T21:59:27.929Z,1.85
2023-03-29T22:01:54.344Z,1.85
2023-03-29T22:04:35.331Z,1.40
2023-03-29T22:07:03.060Z,1.92
2023-03-29T22:09:29.605Z,1.93
2023-03-29T22:11:56.770Z,2.30
2023-03-29T22:14:23.183Z,1.88
2023-03-29T22:16:49.567Z,1.73
2023-03-29T22:19:16.024Z,1.83
2023-03-29T22:21:42.495Z,1.60
2023-03-29T22:24:08.839Z,1.58
2023-03-29T22:26:35.466Z,2.13
2023-03-29T22:29:02.768Z,2.40
2023-03-29T22:31:31.244Z,1.63
2023-03-29T22:33:58.482Z,2.00
2023-03-29T22:36:27.600Z,1.85
2023-03-29T22:38:54.936Z,1.58
2023-03-29T22:41:23.780Z,1.80
2023-03-29T22:43:52.483Z,1.83
2023-03-29T22:46:19.898Z,1.70
2023-03-29T22:48:46.718Z,2.20
2023-03-29T22:51:13.219Z,1.70
2023-03-29T22:53:39.580Z,1.77
2023-03-29T22:56:07.447Z,1.80
2023-03-29T22:58:33.901Z,1.87
2023-03-29T23:01:00.423Z,1.52
2023-03-29T23:03:26.924Z,1.67
2023-03-29T23:05:55.668Z,1.80
2023-03-29T23:08:26.120Z,1.52
2023-03-29T23:10:52.753Z,1.90
2023-03-29T23:13:24.006Z,1.45
2023-03-29T23:15:50.792Z,1.58
2023-03-29T23:18:20.902Z,1.38
2023-03-29T23:20:48.980Z,1.55
2023-03-29T23:23:17.017Z,1.27
2023-03-29T23:25:45.571Z,1.10
2023-03-29T23:28:12.654Z,1.67
2023-03-29T23:30:39.431Z,1.70
2023-03-29T23:33:06.833Z,1.52
2023-03-29T23:35:33.441Z,1.60
2023-03-29T23:37:59.801Z,1.38
2023-03-29T23:40:27.665Z,1.50
2023-03-29T23:42:59.367Z,1.52
2023-03-29T23:45:29.284Z,1.10
2023-03-29T23:47:56.990Z,1.53
2023-03-29T23:50:23.703Z,1.40
2023-03-29T23:52:51.492Z,0.93
2023-03-29T23:55:18.435Z,1.42
2023-03-29T23:57:44.862Z,1.30
